Truth — WYV5559 — position and weather

sailwx.info

Track history (hours):
 
Tides and Currents Weather Stations Pressure Air Temp Water Temp Dewpoint Dewpoint Depression Visibility Wind Speed Wind Dir Waves Ship Positions

Truth

Owner: TRUTH AQUATIES INC, SANTA BARBARA, CA. More information available from US FCC via Universal Licensing System and Coast Guard Vessel Documentation Center.

Last reported at 2017-Jul-25 15:29 UTC. Time now 2017-Jul-25 16:39 UTC.
Position N 34°24' W 119°41'.

Length 22 m.

Type: Diving. MMSI: 367384840.

Date/timePositionNaut miles runAvg speedWind from/ knotsBaromVisibWave heightAir tempDewpointWater temp
2017-Jul-25 15:29N 34°24' W 119°41'0 0.0
2017-Jul-25 09:19N 34°24' W 119°42'0 0.0
2017-Jul-25 08:04N 34°24' W 119°42'0 0.0
2017-Jul-25 04:16N 34°24' W 119°42'0 0.0
2017-Jul-24 22:25N 34°24' W 119°41'0 0.0
2017-Jul-24 21:52N 34°24' W 119°41'0 0.1
2017-Jul-24 21:19N 34°24' W 119°42'0 0.1
2017-Jul-24 18:51N 34°24' W 119°42'0 0.2
2017-Jul-24 17:53N 34°24' W 119°42'0 0.0
2017-Jul-24 12:47N 34°24' W 119°42'0 0.0
2017-Jul-24 04:57N 34°24' W 119°42'0 0.0
2017-Jul-24 04:27N 34°24' W 119°42'0 0.0
2017-Jul-24 01:12N 34°24' W 119°42'0 1.5
2017-Jul-24 01:00N 34°24' W 119°41'5 9.8
2017-Jul-24 00:30N 34°22' W 119°46'610.7
2017-Jul-23 23:58N 34°19' W 119°52'610.3
2017-Jul-23 23:24N 34°16' W 119°58'410.4
2017-Jul-23 23:00N 34°14' W 120°03'510.0
2017-Jul-23 22:30N 34°12' W 120°08'510.0
2017-Jul-23 22:00N 34°09' W 120°13'510.2
2017-Jul-23 21:30N 34°07' W 120°19'510.2
2017-Jul-23 21:00N 34°04' W 120°24'2 3.3
2017-Jul-23 20:29N 34°03' W 120°25'0 0.0
2017-Jul-23 19:59N 34°03' W 120°25'0 0.0
2017-Jul-23 19:29N 34°03' W 120°25'0 0.4
2017-Jul-23 19:00N 34°03' W 120°26'0 0.1
2017-Jul-23 18:25N 34°03' W 120°26'0 0.0
2017-Jul-23 17:49N 34°03' W 120°26'0 0.1
2017-Jul-23 17:28N 34°03' W 120°26'1 1.3
2017-Jul-23 16:56N 34°04' W 120°25'0 0.1
2017-Jul-23 16:29N 34°04' W 120°25'0 0.0
2017-Jul-23 15:59N 34°04' W 120°25'0 0.1
2017-Jul-23 15:29N 34°04' W 120°25'0 0.0
2017-Jul-23 14:59N 34°04' W 120°25'1 1.5
2017-Jul-23 14:30N 34°04' W 120°24'5 9.3
2017-Jul-23 14:00N 34°05' W 120°19'5 9.8
2017-Jul-23 13:30N 34°07' W 120°13'5 9.4
2017-Jul-23 13:00N 34°09' W 120°08'5 9.4
2017-Jul-23 12:30N 34°11' W 120°03'5 9.6
2017-Jul-23 11:59N 34°14' W 119°58'610.1
2017-Jul-23 11:26N 34°17' W 119°53'410.1
2017-Jul-23 11:00N 34°19' W 119°48'6 9.9
2017-Jul-23 10:24N 34°23' W 119°42'2 1.0
2017-Jul-23 08:23N 34°24' W 119°42'0 0.0
2017-Jul-23 07:53N 34°24' W 119°42'0 0.0
2017-Jul-23 00:46N 34°24' W 119°42'2 6.0
2017-Jul-23 00:23N 34°22' W 119°42'410.5
2017-Jul-23 00:00N 34°18' W 119°44'711.1
2017-Jul-22 23:21N 34°12' W 119°47'410.9
2017-Jul-22 23:00N 34°08' W 119°49'5 7.6
2017-Jul-22 22:23N 34°04' W 119°51'0 0.0
2017-Jul-22 21:59N 34°04' W 119°51'0 0.1
2017-Jul-22 21:29N 34°04' W 119°51'0 0.0
2017-Jul-22 20:59N 34°04' W 119°51'0 0.0
2017-Jul-22 20:17N 34°04' W 119°51'0 0.0
2017-Jul-22 19:59N 34°04' W 119°51'0 0.0
2017-Jul-22 19:29N 34°04' W 119°51'1 1.5
2017-Jul-22 18:59N 34°05' W 119°52'1 1.5
2017-Jul-22 18:22N 34°04' W 119°53'0 0.0
2017-Jul-22 17:52N 34°04' W 119°53'0 0.0
2017-Jul-22 17:30N 34°04' W 119°53'4 7.2
2017-Jul-22 17:00N 34°08' W 119°51'610.0
2017-Jul-22 16:22N 34°13' W 119°48'410.2
2017-Jul-22 15:59N 34°17' W 119°46'5 8.4
2017-Jul-22 15:23N 34°21' W 119°43'3 0.3
2017-Jul-22 03:36N 34°24' W 119°42'0 0.0
2017-Jul-22 03:06N 34°24' W 119°42'0 0.0
2017-Jul-22 01:12N 34°24' W 119°42'0 0.0
2017-Jul-22 01:00N 34°24' W 119°42'2 3.4
2017-Jul-22 00:21N 34°23' W 119°43'3 6.9
2017-Jul-21 23:51N 34°19' W 119°44'5 8.3
2017-Jul-21 23:12N 34°14' W 119°47'310.5
2017-Jul-21 22:54N 34°11' W 119°48'410.3
2017-Jul-21 22:29N 34°07' W 119°50'3 6.7
2017-Jul-21 21:58N 34°04' W 119°51'0 0.1
2017-Jul-21 21:28N 34°04' W 119°51'0 0.1
2017-Jul-21 20:58N 34°04' W 119°51'0 0.0
2017-Jul-21 19:43N 34°04' W 119°51'1 1.8
2017-Jul-21 19:24N 34°04' W 119°52'1 2.3
2017-Jul-21 18:56N 34°04' W 119°53'0 0.0
2017-Jul-21 18:26N 34°04' W 119°53'0 0.0
2017-Jul-21 17:56N 34°04' W 119°53'0 0.0
2017-Jul-21 17:30N 34°04' W 119°53'4 7.8
2017-Jul-21 16:58N 34°08' W 119°51'5 9.7
2017-Jul-21 16:29N 34°13' W 119°48'5 9.9
2017-Jul-21 16:00N 34°17' W 119°46'7 9.9
2017-Jul-21 15:16N 34°23' W 119°41'2 0.1
2017-Jul-21 02:32N 34°24' W 119°42'0 0.0
2017-Jul-21 02:11N 34°24' W 119°42'0 0.0
2017-Jul-21 01:59N 34°24' W 119°42'0 0.0
2017-Jul-21 01:20N 34°24' W 119°42'0 0.0
2017-Jul-21 00:56N 34°24' W 119°42'0 0.0
2017-Jul-20 22:17N 34°24' W 119°42'0 0.2
2017-Jul-20 21:59N 34°24' W 119°41'0 0.0
2017-Jul-20 20:41N 34°24' W 119°42'0 0.0
2017-Jul-20 19:20N 34°24' W 119°42'0 0.0
2017-Jul-20 18:56N 34°24' W 119°42'0 0.0
2017-Jul-20 18:14N 34°24' W 119°42'0 0.0
2017-Jul-20 17:44N 34°24' W 119°42'0 0.0
2017-Jul-20 17:14N 34°24' W 119°42'0 0.0
2017-Jul-20 16:35N 34°24' W 119°42'0 0.0
2017-Jul-20 11:51N 34°24' W 119°42'0 0.0
2017-Jul-20 07:12N 34°24' W 119°42'0 0.0
2017-Jul-20 06:44N 34°24' W 119°42'0 0.0
2017-Jul-20 04:18N 34°24' W 119°42'0 0.0
2017-Jul-20 00:32N 34°24' W 119°42'0 0.1
2017-Jul-20 00:30N 34°24' W 119°42'3 7.1
2017-Jul-20 00:00N 34°21' W 119°43'510.0
2017-Jul-19 23:28N 34°16' W 119°46'4 9.8
2017-Jul-19 23:00N 34°12' W 119°48'510.0
2017-Jul-19 22:30N 34°07' W 119°50'4 5.1
2017-Jul-19 21:49N 34°04' W 119°51'0 0.1
2017-Jul-19 21:19N 34°04' W 119°51'0 0.0
2017-Jul-19 20:52N 34°04' W 119°51'0 0.1
2017-Jul-19 20:28N 34°04' W 119°51'1 3.1
2017-Jul-19 20:00N 34°05' W 119°53'0 0.4
2017-Jul-19 19:07N 34°04' W 119°53'0 0.0
2017-Jul-19 18:58N 34°04' W 119°53'0 0.0
2017-Jul-19 18:22N 34°04' W 119°53'0 0.1
2017-Jul-19 17:58N 34°04' W 119°53'4 7.9
2017-Jul-19 17:28N 34°08' W 119°50'5 9.6
2017-Jul-19 16:57N 34°12' W 119°48'4 9.9
2017-Jul-19 16:30N 34°16' W 119°46'5 6.8
2017-Jul-19 15:45N 34°21' W 119°43'4 1.1
2017-Jul-19 12:20N 34°24' W 119°42'0 0.0
2017-Jul-19 11:56N 34°24' W 119°42'0 0.0
2017-Jul-19 08:38N 34°24' W 119°42'0 0.0
2017-Jul-19 08:23N 34°24' W 119°42'0 0.0
2017-Jul-19 01:50N 34°24' W 119°42'0 0.1
2017-Jul-19 00:30N 34°24' W 119°42'0 0.3
2017-Jul-18 23:54N 34°24' W 119°42'3 7.9
2017-Jul-18 23:29N 34°21' W 119°42'4 7.8
2017-Jul-18 22:58N 34°17' W 119°43'2 3.0
2017-Jul-18 22:24N 34°18' W 119°44'4 9.2
2017-Jul-18 22:01N 34°15' W 119°46'510.0
2017-Jul-18 21:30N 34°10' W 119°46'5 9.1
2017-Jul-18 21:00N 34°06' W 119°43'4 8.3
2017-Jul-18 20:29N 34°02' W 119°42'0 0.0
2017-Jul-18 20:00N 34°02' W 119°42'0 0.0
2017-Jul-18 19:27N 34°02' W 119°42'0 0.0
2017-Jul-18 19:00N 34°02' W 119°42'0 0.0
2017-Jul-18 18:15N 34°02' W 119°42'0 1.3
2017-Jul-18 17:58N 34°02' W 119°41'0 0.9
2017-Jul-18 17:28N 34°01' W 119°41'0 0.1
2017-Jul-18 16:55N 34°01' W 119°41'0 0.0
2017-Jul-18 16:28N 34°01' W 119°41'0 0.0
2017-Jul-18 15:58N 34°01' W 119°41'0 0.0
2017-Jul-18 15:28N 34°01' W 119°41'1 1.6
2017-Jul-18 15:00N 34°02' W 119°42'1 0.4
2017-Jul-18 13:50N 34°02' W 119°42'0 0.0
2017-Jul-18 13:14N 34°02' W 119°42'0 0.0
2017-Jul-18 12:47N 34°02' W 119°42'0 0.0
2017-Jul-18 12:29N 34°02' W 119°42'0 0.0
2017-Jul-18 11:38N 34°02' W 119°42'0 0.0
2017-Jul-18 11:20N 34°02' W 119°42'0 0.0
2017-Jul-18 10:50N 34°02' W 119°42'0 0.0
2017-Jul-18 10:14N 34°02' W 119°42'0 0.0
2017-Jul-18 09:59N 34°02' W 119°42'0 0.0
2017-Jul-18 08:59N 34°02' W 119°42'0 0.0
2017-Jul-18 05:56N 34°02' W 119°42'0 0.0
2017-Jul-18 05:26N 34°02' W 119°42'0 0.0
2017-Jul-18 04:50N 34°02' W 119°42'0 0.0
2017-Jul-18 04:29N 34°02' W 119°42'0 0.0
2017-Jul-18 03:50N 34°02' W 119°42'0 0.0
2017-Jul-18 02:35N 34°02' W 119°42'0 0.0
2017-Jul-18 02:14N 34°02' W 119°42'0 0.0
2017-Jul-18 01:59N 34°02' W 119°42'0 0.0
2017-Jul-18 01:30N 34°02' W 119°42'3 5.1
2017-Jul-18 01:00N 34°03' W 119°45'5 9.5
2017-Jul-18 00:29N 34°04' W 119°51'0 0.4
2017-Jul-17 23:42N 34°04' W 119°51'0 0.0
2017-Jul-17 23:30N 34°04' W 119°51'0 0.0
2017-Jul-17 22:57N 34°04' W 119°51'0 0.0
2017-Jul-17 22:27N 34°04' W 119°51'0 0.0
2017-Jul-17 21:48N 34°04' W 119°51'1 1.4
2017-Jul-17 21:25N 34°04' W 119°52'3 7.5
2017-Jul-17 21:00N 34°05' W 119°55'510.1
2017-Jul-17 20:29N 34°02' W 120°00'2 4.5
2017-Jul-17 19:58N 34°01' W 120°03'0 0.0
2017-Jul-17 19:25N 34°01' W 120°03'0 0.0
2017-Jul-17 18:58N 34°01' W 120°03'0 0.0
2017-Jul-17 18:28N 34°01' W 120°03'0 0.0
2017-Jul-17 17:58N 34°01' W 120°03'0 0.0
2017-Jul-17 17:26N 34°01' W 120°03'0 0.0
2017-Jul-17 16:59N 34°01' W 120°03'0 0.0
2017-Jul-17 16:29N 34°01' W 120°03'1 2.7
2017-Jul-17 16:01N 33°60' W 120°02'1 1.6
2017-Jul-17 15:18N 33°59' W 120°01'0 0.0
2017-Jul-17 15:00N 33°59' W 120°01'0 0.1
2017-Jul-17 14:31N 33°59' W 120°01'2 4.4
2017-Jul-17 13:59N 34°00' W 120°03'0 0.1
2017-Jul-17 13:30N 34°00' W 120°03'3 5.3
2017-Jul-17 13:00N 34°03' W 120°05'5 9.9
2017-Jul-17 12:30N 34°02' W 120°10'5 9.6
2017-Jul-17 12:00N 34°01' W 120°16'9 0.7
2017-Jul-16 23:27N 34°01' W 120°27'2 4.0
2017-Jul-16 22:59N 34°03' W 120°26'1 2.8
2017-Jul-16 22:30N 34°03' W 120°25'3 5.2
2017-Jul-16 22:00N 34°04' W 120°22'1 2.5
2017-Jul-16 21:28N 34°03' W 120°21'0 0.0
2017-Jul-16 20:58N 34°03' W 120°21'0 0.0
2017-Jul-16 20:28N 34°03' W 120°21'0 0.0
2017-Jul-16 16:01N 34°03' W 120°21'0 0.0
2017-Jul-16 15:58N 34°03' W 120°21'0 0.0
2017-Jul-16 15:28N 34°03' W 120°21'0 0.5
2017-Jul-16 15:00N 34°03' W 120°21'4 8.8
2017-Jul-16 14:31N 34°05' W 120°16'5 9.7
2017-Jul-16 14:00N 34°08' W 120°11'510.1
2017-Jul-16 13:30N 34°10' W 120°06'510.0
2017-Jul-16 12:58N 34°13' W 120°00'610.2
2017-Jul-16 12:25N 34°16' W 119°55'410.3
2017-Jul-16 12:00N 34°18' W 119°50'610.2
2017-Jul-16 11:22N 34°22' W 119°44'3 0.5
2017-Jul-16 05:26N 34°24' W 119°42'0 0.0
2017-Jul-16 04:59N 34°24' W 119°42'0 0.1
2017-Jul-16 04:11N 34°24' W 119°41'0 0.0
2017-Jul-16 02:29N 34°24' W 119°42'0 0.0
2017-Jul-16 01:56N 34°24' W 119°42'0 0.0
2017-Jul-16 01:26N 34°24' W 119°42'0 0.0
2017-Jul-16 00:57N 34°24' W 119°42'3 6.7
2017-Jul-16 00:26N 34°21' W 119°43'410.0
2017-Jul-16 00:00N 34°17' W 119°45'510.0
2017-Jul-15 23:28N 34°13' W 119°48'4 8.8
2017-Jul-15 23:00N 34°08' W 119°49'5 3.5
2017-Jul-15 21:40N 34°04' W 119°51'0 0.0
2017-Jul-15 21:13N 34°04' W 119°51'0 0.0
2017-Jul-15 20:46N 34°04' W 119°51'0 0.1
2017-Jul-15 20:22N 34°04' W 119°51'1 1.7
2017-Jul-15 19:56N 34°04' W 119°52'1 1.1
2017-Jul-15 19:05N 34°04' W 119°53'0 0.0
2017-Jul-15 18:59N 34°04' W 119°53'0 0.0
2017-Jul-15 18:29N 34°04' W 119°53'0 0.1
2017-Jul-15 17:56N 34°04' W 119°53'3 7.9
2017-Jul-15 17:30N 34°05' W 119°49'6 9.8
2017-Jul-15 16:55N 34°11' W 119°47'5 9.9
2017-Jul-15 16:25N 34°15' W 119°45'6 9.1
2017-Jul-15 15:43N 34°21' W 119°42'  
Track history (hours):
 
Tides and Currents Weather Stations Pressure Air Temp Water Temp Dewpoint Dewpoint Depression Visibility Wind Speed Wind Dir Waves Ship Positions

Truth

Owner: TRUTH AQUATIES INC, SANTA BARBARA, CA. More information available from US FCC via Universal Licensing System and Coast Guard Vessel Documentation Center.

Last reported at 2017-Jul-25 15:29 UTC. Time now 2017-Jul-25 16:39 UTC.
Position N 34°24' W 119°41'.

Length 22 m.

Type: Diving. MMSI: 367384840.

Date/timePositionNaut miles runAvg speedWind from/ knotsBaromVisibWave heightAir tempDewpointWater temp
2017-Jul-25 15:29N 34°24' W 119°41'0 0.0
2017-Jul-25 09:19N 34°24' W 119°42'0 0.0
2017-Jul-25 08:04N 34°24' W 119°42'0 0.0
2017-Jul-25 04:16N 34°24' W 119°42'0 0.0
2017-Jul-24 22:25N 34°24' W 119°41'0 0.0
2017-Jul-24 21:52N 34°24' W 119°41'0 0.1
2017-Jul-24 21:19N 34°24' W 119°42'0 0.1
2017-Jul-24 18:51N 34°24' W 119°42'0 0.2
2017-Jul-24 17:53N 34°24' W 119°42'0 0.0
2017-Jul-24 12:47N 34°24' W 119°42'0 0.0
2017-Jul-24 04:57N 34°24' W 119°42'0 0.0
2017-Jul-24 04:27N 34°24' W 119°42'0 0.0
2017-Jul-24 01:12N 34°24' W 119°42'0 1.5
2017-Jul-24 01:00N 34°24' W 119°41'5 9.8
2017-Jul-24 00:30N 34°22' W 119°46'610.7
2017-Jul-23 23:58N 34°19' W 119°52'610.3
2017-Jul-23 23:24N 34°16' W 119°58'410.4
2017-Jul-23 23:00N 34°14' W 120°03'510.0
2017-Jul-23 22:30N 34°12' W 120°08'510.0
2017-Jul-23 22:00N 34°09' W 120°13'510.2
2017-Jul-23 21:30N 34°07' W 120°19'510.2
2017-Jul-23 21:00N 34°04' W 120°24'2 3.3
2017-Jul-23 20:29N 34°03' W 120°25'0 0.0
2017-Jul-23 19:59N 34°03' W 120°25'0 0.0
2017-Jul-23 19:29N 34°03' W 120°25'0 0.4
2017-Jul-23 19:00N 34°03' W 120°26'0 0.1
2017-Jul-23 18:25N 34°03' W 120°26'0 0.0
2017-Jul-23 17:49N 34°03' W 120°26'0 0.1
2017-Jul-23 17:28N 34°03' W 120°26'1 1.3
2017-Jul-23 16:56N 34°04' W 120°25'0 0.1
2017-Jul-23 16:29N 34°04' W 120°25'0 0.0
2017-Jul-23 15:59N 34°04' W 120°25'0 0.1
2017-Jul-23 15:29N 34°04' W 120°25'0 0.0
2017-Jul-23 14:59N 34°04' W 120°25'1 1.5
2017-Jul-23 14:30N 34°04' W 120°24'5 9.3
2017-Jul-23 14:00N 34°05' W 120°19'5 9.8
2017-Jul-23 13:30N 34°07' W 120°13'5 9.4
2017-Jul-23 13:00N 34°09' W 120°08'5 9.4
2017-Jul-23 12:30N 34°11' W 120°03'5 9.6
2017-Jul-23 11:59N 34°14' W 119°58'610.1
2017-Jul-23 11:26N 34°17' W 119°53'410.1
2017-Jul-23 11:00N 34°19' W 119°48'6 9.9
2017-Jul-23 10:24N 34°23' W 119°42'2 1.0
2017-Jul-23 08:23N 34°24' W 119°42'0 0.0
2017-Jul-23 07:53N 34°24' W 119°42'0 0.0
2017-Jul-23 00:46N 34°24' W 119°42'2 6.0
2017-Jul-23 00:23N 34°22' W 119°42'410.5
2017-Jul-23 00:00N 34°18' W 119°44'711.1
2017-Jul-22 23:21N 34°12' W 119°47'410.9
2017-Jul-22 23:00N 34°08' W 119°49'5 7.6
2017-Jul-22 22:23N 34°04' W 119°51'0 0.0
2017-Jul-22 21:59N 34°04' W 119°51'0 0.1
2017-Jul-22 21:29N 34°04' W 119°51'0 0.0
2017-Jul-22 20:59N 34°04' W 119°51'0 0.0
2017-Jul-22 20:17N 34°04' W 119°51'0 0.0
2017-Jul-22 19:59N 34°04' W 119°51'0 0.0
2017-Jul-22 19:29N 34°04' W 119°51'1 1.5
2017-Jul-22 18:59N 34°05' W 119°52'1 1.5
2017-Jul-22 18:22N 34°04' W 119°53'0 0.0
2017-Jul-22 17:52N 34°04' W 119°53'0 0.0
2017-Jul-22 17:30N 34°04' W 119°53'4 7.2
2017-Jul-22 17:00N 34°08' W 119°51'610.0
2017-Jul-22 16:22N 34°13' W 119°48'410.2
2017-Jul-22 15:59N 34°17' W 119°46'5 8.4
2017-Jul-22 15:23N 34°21' W 119°43'3 0.3
2017-Jul-22 03:36N 34°24' W 119°42'0 0.0
2017-Jul-22 03:06N 34°24' W 119°42'0 0.0
2017-Jul-22 01:12N 34°24' W 119°42'0 0.0
2017-Jul-22 01:00N 34°24' W 119°42'2 3.4
2017-Jul-22 00:21N 34°23' W 119°43'3 6.9
2017-Jul-21 23:51N 34°19' W 119°44'5 8.3
2017-Jul-21 23:12N 34°14' W 119°47'310.5
2017-Jul-21 22:54N 34°11' W 119°48'410.3
2017-Jul-21 22:29N 34°07' W 119°50'3 6.7
2017-Jul-21 21:58N 34°04' W 119°51'0 0.1
2017-Jul-21 21:28N 34°04' W 119°51'0 0.1
2017-Jul-21 20:58N 34°04' W 119°51'0 0.0
2017-Jul-21 19:43N 34°04' W 119°51'1 1.8
2017-Jul-21 19:24N 34°04' W 119°52'1 2.3
2017-Jul-21 18:56N 34°04' W 119°53'0 0.0
2017-Jul-21 18:26N 34°04' W 119°53'0 0.0
2017-Jul-21 17:56N 34°04' W 119°53'0 0.0
2017-Jul-21 17:30N 34°04' W 119°53'4 7.8
2017-Jul-21 16:58N 34°08' W 119°51'5 9.7
2017-Jul-21 16:29N 34°13' W 119°48'5 9.9
2017-Jul-21 16:00N 34°17' W 119°46'7 9.9
2017-Jul-21 15:16N 34°23' W 119°41'2 0.1
2017-Jul-21 02:32N 34°24' W 119°42'0 0.0
2017-Jul-21 02:11N 34°24' W 119°42'0 0.0
2017-Jul-21 01:59N 34°24' W 119°42'0 0.0
2017-Jul-21 01:20N 34°24' W 119°42'0 0.0
2017-Jul-21 00:56N 34°24' W 119°42'0 0.0
2017-Jul-20 22:17N 34°24' W 119°42'0 0.2
2017-Jul-20 21:59N 34°24' W 119°41'0 0.0
2017-Jul-20 20:41N 34°24' W 119°42'0 0.0
2017-Jul-20 19:20N 34°24' W 119°42'0 0.0
2017-Jul-20 18:56N 34°24' W 119°42'0 0.0
2017-Jul-20 18:14N 34°24' W 119°42'0 0.0
2017-Jul-20 17:44N 34°24' W 119°42'0 0.0
2017-Jul-20 17:14N 34°24' W 119°42'0 0.0
2017-Jul-20 16:35N 34°24' W 119°42'0 0.0
2017-Jul-20 11:51N 34°24' W 119°42'0 0.0
2017-Jul-20 07:12N 34°24' W 119°42'0 0.0
2017-Jul-20 06:44N 34°24' W 119°42'0 0.0
2017-Jul-20 04:18N 34°24' W 119°42'0 0.0
2017-Jul-20 00:32N 34°24' W 119°42'0 0.1
2017-Jul-20 00:30N 34°24' W 119°42'3 7.1
2017-Jul-20 00:00N 34°21' W 119°43'510.0
2017-Jul-19 23:28N 34°16' W 119°46'4 9.8
2017-Jul-19 23:00N 34°12' W 119°48'510.0
2017-Jul-19 22:30N 34°07' W 119°50'4 5.1
2017-Jul-19 21:49N 34°04' W 119°51'0 0.1
2017-Jul-19 21:19N 34°04' W 119°51'0 0.0
2017-Jul-19 20:52N 34°04' W 119°51'0 0.1
2017-Jul-19 20:28N 34°04' W 119°51'1 3.1
2017-Jul-19 20:00N 34°05' W 119°53'0 0.4
2017-Jul-19 19:07N 34°04' W 119°53'0 0.0
2017-Jul-19 18:58N 34°04' W 119°53'0 0.0
2017-Jul-19 18:22N 34°04' W 119°53'0 0.1
2017-Jul-19 17:58N 34°04' W 119°53'4 7.9
2017-Jul-19 17:28N 34°08' W 119°50'5 9.6
2017-Jul-19 16:57N 34°12' W 119°48'4 9.9
2017-Jul-19 16:30N 34°16' W 119°46'5 6.8
2017-Jul-19 15:45N 34°21' W 119°43'4 1.1
2017-Jul-19 12:20N 34°24' W 119°42'0 0.0
2017-Jul-19 11:56N 34°24' W 119°42'0 0.0
2017-Jul-19 08:38N 34°24' W 119°42'0 0.0
2017-Jul-19 08:23N 34°24' W 119°42'0 0.0
2017-Jul-19 01:50N 34°24' W 119°42'0 0.1
2017-Jul-19 00:30N 34°24' W 119°42'0 0.3
2017-Jul-18 23:54N 34°24' W 119°42'3 7.9
2017-Jul-18 23:29N 34°21' W 119°42'4 7.8
2017-Jul-18 22:58N 34°17' W 119°43'2 3.0
2017-Jul-18 22:24N 34°18' W 119°44'4 9.2
2017-Jul-18 22:01N 34°15' W 119°46'510.0
2017-Jul-18 21:30N 34°10' W 119°46'5 9.1
2017-Jul-18 21:00N 34°06' W 119°43'4 8.3
2017-Jul-18 20:29N 34°02' W 119°42'0 0.0
2017-Jul-18 20:00N 34°02' W 119°42'0 0.0
2017-Jul-18 19:27N 34°02' W 119°42'0 0.0
2017-Jul-18 19:00N 34°02' W 119°42'0 0.0
2017-Jul-18 18:15N 34°02' W 119°42'0 1.3
2017-Jul-18 17:58N 34°02' W 119°41'0 0.9
2017-Jul-18 17:28N 34°01' W 119°41'0 0.1
2017-Jul-18 16:55N 34°01' W 119°41'0 0.0
2017-Jul-18 16:28N 34°01' W 119°41'0 0.0
2017-Jul-18 15:58N 34°01' W 119°41'0 0.0
2017-Jul-18 15:28N 34°01' W 119°41'1 1.6
2017-Jul-18 15:00N 34°02' W 119°42'1 0.4
2017-Jul-18 13:50N 34°02' W 119°42'0 0.0
2017-Jul-18 13:14N 34°02' W 119°42'0 0.0
2017-Jul-18 12:47N 34°02' W 119°42'0 0.0
2017-Jul-18 12:29N 34°02' W 119°42'0 0.0
2017-Jul-18 11:38N 34°02' W 119°42'0 0.0
2017-Jul-18 11:20N 34°02' W 119°42'0 0.0
2017-Jul-18 10:50N 34°02' W 119°42'0 0.0
2017-Jul-18 10:14N 34°02' W 119°42'0 0.0
2017-Jul-18 09:59N 34°02' W 119°42'0 0.0
2017-Jul-18 08:59N 34°02' W 119°42'0 0.0
2017-Jul-18 05:56N 34°02' W 119°42'0 0.0
2017-Jul-18 05:26N 34°02' W 119°42'0 0.0
2017-Jul-18 04:50N 34°02' W 119°42'0 0.0
2017-Jul-18 04:29N 34°02' W 119°42'0 0.0
2017-Jul-18 03:50N 34°02' W 119°42'0 0.0
2017-Jul-18 02:35N 34°02' W 119°42'0 0.0
2017-Jul-18 02:14N 34°02' W 119°42'0 0.0
2017-Jul-18 01:59N 34°02' W 119°42'0 0.0
2017-Jul-18 01:30N 34°02' W 119°42'3 5.1
2017-Jul-18 01:00N 34°03' W 119°45'5 9.5
2017-Jul-18 00:29N 34°04' W 119°51'0 0.4
2017-Jul-17 23:42N 34°04' W 119°51'0 0.0
2017-Jul-17 23:30N 34°04' W 119°51'0 0.0
2017-Jul-17 22:57N 34°04' W 119°51'0 0.0
2017-Jul-17 22:27N 34°04' W 119°51'0 0.0
2017-Jul-17 21:48N 34°04' W 119°51'1 1.4
2017-Jul-17 21:25N 34°04' W 119°52'3 7.5
2017-Jul-17 21:00N 34°05' W 119°55'510.1
2017-Jul-17 20:29N 34°02' W 120°00'2 4.5
2017-Jul-17 19:58N 34°01' W 120°03'0 0.0
2017-Jul-17 19:25N 34°01' W 120°03'0 0.0
2017-Jul-17 18:58N 34°01' W 120°03'0 0.0
2017-Jul-17 18:28N 34°01' W 120°03'0 0.0
2017-Jul-17 17:58N 34°01' W 120°03'0 0.0
2017-Jul-17 17:26N 34°01' W 120°03'0 0.0
2017-Jul-17 16:59N 34°01' W 120°03'0 0.0
2017-Jul-17 16:29N 34°01' W 120°03'1 2.7
2017-Jul-17 16:01N 33°60' W 120°02'1 1.6
2017-Jul-17 15:18N 33°59' W 120°01'0 0.0
2017-Jul-17 15:00N 33°59' W 120°01'0 0.1
2017-Jul-17 14:31N 33°59' W 120°01'2 4.4
2017-Jul-17 13:59N 34°00' W 120°03'0 0.1
2017-Jul-17 13:30N 34°00' W 120°03'3 5.3
2017-Jul-17 13:00N 34°03' W 120°05'5 9.9
2017-Jul-17 12:30N 34°02' W 120°10'5 9.6
2017-Jul-17 12:00N 34°01' W 120°16'9 0.7
2017-Jul-16 23:27N 34°01' W 120°27'2 4.0
2017-Jul-16 22:59N 34°03' W 120°26'1 2.8
2017-Jul-16 22:30N 34°03' W 120°25'3 5.2
2017-Jul-16 22:00N 34°04' W 120°22'1 2.5
2017-Jul-16 21:28N 34°03' W 120°21'0 0.0
2017-Jul-16 20:58N 34°03' W 120°21'0 0.0
2017-Jul-16 20:28N 34°03' W 120°21'0 0.0
2017-Jul-16 16:01N 34°03' W 120°21'0 0.0
2017-Jul-16 15:58N 34°03' W 120°21'0 0.0
2017-Jul-16 15:28N 34°03' W 120°21'0 0.5
2017-Jul-16 15:00N 34°03' W 120°21'4 8.8
2017-Jul-16 14:31N 34°05' W 120°16'5 9.7
2017-Jul-16 14:00N 34°08' W 120°11'510.1
2017-Jul-16 13:30N 34°10' W 120°06'510.0
2017-Jul-16 12:58N 34°13' W 120°00'610.2
2017-Jul-16 12:25N 34°16' W 119°55'410.3
2017-Jul-16 12:00N 34°18' W 119°50'610.2
2017-Jul-16 11:22N 34°22' W 119°44'3 0.5
2017-Jul-16 05:26N 34°24' W 119°42'0 0.0
2017-Jul-16 04:59N 34°24' W 119°42'0 0.1
2017-Jul-16 04:11N 34°24' W 119°41'0 0.0
2017-Jul-16 02:29N 34°24' W 119°42'0 0.0
2017-Jul-16 01:56N 34°24' W 119°42'0 0.0
2017-Jul-16 01:26N 34°24' W 119°42'0 0.0
2017-Jul-16 00:57N 34°24' W 119°42'3 6.7
2017-Jul-16 00:26N 34°21' W 119°43'410.0
2017-Jul-16 00:00N 34°17' W 119°45'510.0
2017-Jul-15 23:28N 34°13' W 119°48'4 8.8
2017-Jul-15 23:00N 34°08' W 119°49'5 3.5
2017-Jul-15 21:40N 34°04' W 119°51'0 0.0
2017-Jul-15 21:13N 34°04' W 119°51'0 0.0
2017-Jul-15 20:46N 34°04' W 119°51'0 0.1
2017-Jul-15 20:22N 34°04' W 119°51'1 1.7
2017-Jul-15 19:56N 34°04' W 119°52'1 1.1
2017-Jul-15 19:05N 34°04' W 119°53'0 0.0
2017-Jul-15 18:59N 34°04' W 119°53'0 0.0
2017-Jul-15 18:29N 34°04' W 119°53'0 0.1
2017-Jul-15 17:56N 34°04' W 119°53'3 7.9
2017-Jul-15 17:30N 34°05' W 119°49'6 9.8
2017-Jul-15 16:55N 34°11' W 119°47'5 9.9
2017-Jul-15 16:25N 34°15' W 119°45'6 9.1
2017-Jul-15 15:43N 34°21' W 119°42'  

Dump ship's entire track history